sensor_id;sensor_type;location;lat;lon;timestamp;pressure;altitude;pressure_sealevel;temperature;humidity
51526;BME280;37611;51.794;21.590;2022-08-19T00:03:53;99684.77;;;21.55;90.83
51526;BME280;37611;51.794;21.590;2022-08-19T00:07:55;99679.92;;;21.52;90.89
51526;BME280;37611;51.794;21.590;2022-08-19T00:11:58;99678.79;;;21.48;90.95
51526;BME280;37611;51.794;21.590;2022-08-19T00:16:00;99677.20;;;21.44;91.19
51526;BME280;37611;51.794;21.590;2022-08-19T00:20:03;99676.89;;;21.36;90.94
51526;BME280;37611;51.794;21.590;2022-08-19T00:24:09;99675.48;;;21.27;91.15
51526;BME280;37611;51.794;21.590;2022-08-19T00:28:11;99676.56;;;21.21;91.60
51526;BME280;37611;51.794;21.590;2022-08-19T00:32:13;99677.07;;;21.18;91.91
51526;BME280;37611;51.794;21.590;2022-08-19T00:36:15;99672.42;;;21.10;92.19
51526;BME280;37611;51.794;21.590;2022-08-19T00:40:17;99671.80;;;21.02;92.69
51526;BME280;37611;51.794;21.590;2022-08-19T00:44:26;99673.60;;;20.97;93.06
51526;BME280;37611;51.794;21.590;2022-08-19T00:48:28;99677.91;;;20.92;93.23
51526;BME280;37611;51.794;21.590;2022-08-19T00:52:33;99676.36;;;20.87;93.71
51526;BME280;37611;51.794;21.590;2022-08-19T00:56:36;99680.20;;;20.86;93.74
51526;BME280;37611;51.794;21.590;2022-08-19T01:00:38;99680.86;;;20.86;93.81
51526;BME280;37611;51.794;21.590;2022-08-19T01:04:40;99680.28;;;20.87;94.10
51526;BME280;37611;51.794;21.590;2022-08-19T01:08:42;99683.25;;;20.86;94.00
51526;BME280;37611;51.794;21.590;2022-08-19T01:12:44;99688.39;;;20.89;94.14
51526;BME280;37611;51.794;21.590;2022-08-19T01:16:46;99686.64;;;20.87;94.24
51526;BME280;37611;51.794;21.590;2022-08-19T01:20:49;99682.81;;;20.79;94.32
51526;BME280;37611;51.794;21.590;2022-08-19T01:24:51;99684.09;;;20.75;94.45
51526;BME280;37611;51.794;21.590;2022-08-19T01:28:56;99681.91;;;20.70;94.37
51526;BME280;37611;51.794;21.590;2022-08-19T01:32:58;99686.31;;;20.63;94.64
51526;BME280;37611;51.794;21.590;2022-08-19T01:37:09;99694.25;;;20.55;94.86
51526;BME280;37611;51.794;21.590;2022-08-19T01:41:12;99696.37;;;20.50;95.30
51526;BME280;37611;51.794;21.590;2022-08-19T01:45:14;99697.15;;;20.48;95.55
51526;BME280;37611;51.794;21.590;2022-08-19T01:49:20;99697.88;;;20.46;95.36
51526;BME280;37611;51.794;21.590;2022-08-19T01:53:22;99691.10;;;20.44;95.66
51526;BME280;37611;51.794;21.590;2022-08-19T01:57:24;99683.79;;;20.42;95.84
51526;BME280;37611;51.794;21.590;2022-08-19T02:01:27;99690.30;;;20.37;96.10
51526;BME280;37611;51.794;21.590;2022-08-19T02:05:33;99692.70;;;20.31;96.11
51526;BME280;37611;51.794;21.590;2022-08-19T02:09:35;99694.46;;;20.33;96.35
51526;BME280;37611;51.794;21.590;2022-08-19T02:13:37;99684.87;;;20.35;96.10
51526;BME280;37611;51.794;21.590;2022-08-19T02:17:39;99679.83;;;20.32;96.39
51526;BME280;37611;51.794;21.590;2022-08-19T02:21:41;99675.80;;;20.27;96.21
51526;BME280;37611;51.794;21.590;2022-08-19T02:25:46;99671.88;;;20.23;96.72
51526;BME280;37611;51.794;21.590;2022-08-19T02:29:50;99665.73;;;20.16;96.81
51526;BME280;37611;51.794;21.590;2022-08-19T02:33:52;99663.41;;;20.13;96.93
51526;BME280;37611;51.794;21.590;2022-08-19T02:37:54;99662.69;;;20.11;97.10
51526;BME280;37611;51.794;21.590;2022-08-19T02:42:15;99664.20;;;20.10;97.03
51526;BME280;37611;51.794;21.590;2022-08-19T02:46:21;99660.54;;;20.06;97.19
51526;BME280;37611;51.794;21.590;2022-08-19T02:50:23;99661.54;;;20.04;97.17
51526;BME280;37611;51.794;21.590;2022-08-19T02:54:24;99668.90;;;20.03;97.44
51526;BME280;37611;51.794;21.590;2022-08-19T02:58:26;99678.23;;;20.01;97.35
51526;BME280;37611;51.794;21.590;2022-08-19T03:02:28;99674.05;;;20.00;97.59
51526;BME280;37611;51.794;21.590;2022-08-19T03:06:35;99674.45;;;19.98;97.69
51526;BME280;37611;51.794;21.590;2022-08-19T03:10:48;99672.12;;;19.93;97.90
51526;BME280;37611;51.794;21.590;2022-08-19T03:15:04;99675.50;;;19.95;97.75
51526;BME280;37611;51.794;21.590;2022-08-19T03:19:16;99671.55;;;19.97;98.14
51526;BME280;37611;51.794;21.590;2022-08-19T03:23:29;99670.87;;;19.94;98.77
51526;BME280;37611;51.794;21.590;2022-08-19T03:27:31;99668.18;;;19.89;98.63
51526;BME280;37611;51.794;21.590;2022-08-19T03:31:32;99665.23;;;19.89;98.97
51526;BME280;37611;51.794;21.590;2022-08-19T03:35:35;99671.60;;;19.88;99.06
51526;BME280;37611;51.794;21.590;2022-08-19T03:39:41;99678.88;;;19.85;98.94
51526;BME280;37611;51.794;21.590;2022-08-19T03:43:44;99678.85;;;19.88;98.92
51526;BME280;37611;51.794;21.590;2022-08-19T03:47:49;99676.85;;;19.91;98.85
51526;BME280;37611;51.794;21.590;2022-08-19T03:51:52;99671.05;;;19.98;98.80
51526;BME280;37611;51.794;21.590;2022-08-19T03:55:56;99677.27;;;20.02;98.80
51526;BME280;37611;51.794;21.590;2022-08-19T03:59:58;99678.59;;;20.06;98.81
51526;BME280;37611;51.794;21.590;2022-08-19T04:04:00;99677.36;;;20.06;98.59
51526;BME280;37611;51.794;21.590;2022-08-19T04:08:02;99680.61;;;20.05;98.55
51526;BME280;37611;51.794;21.590;2022-08-19T04:12:05;99678.02;;;20.10;98.78
51526;BME280;37611;51.794;21.590;2022-08-19T04:16:07;99680.17;;;20.18;98.68
51526;BME280;37611;51.794;21.590;2022-08-19T04:20:10;99679.04;;;20.21;98.59
51526;BME280;37611;51.794;21.590;2022-08-19T04:24:13;99675.42;;;20.35;98.50
51526;BME280;37611;51.794;21.590;2022-08-19T04:28:15;99674.16;;;20.48;98.25
51526;BME280;37611;51.794;21.590;2022-08-19T04:32:16;99672.27;;;20.63;97.85
51526;BME280;37611;51.794;21.590;2022-08-19T04:36:21;99670.05;;;20.79;97.73
51526;BME280;37611;51.794;21.590;2022-08-19T04:40:23;99670.00;;;20.94;97.13
51526;BME280;37611;51.794;21.590;2022-08-19T04:44:44;99672.05;;;21.08;96.86
51526;BME280;37611;51.794;21.590;2022-08-19T04:48:46;99671.02;;;21.26;96.51
51526;BME280;37611;51.794;21.590;2022-08-19T04:52:50;99671.13;;;21.49;96.05
51526;BME280;37611;51.794;21.590;2022-08-19T04:56:52;99671.61;;;21.76;95.37
51526;BME280;37611;51.794;21.590;2022-08-19T05:00:54;99674.87;;;22.04;94.65
51526;BME280;37611;51.794;21.590;2022-08-19T05:04:58;99681.30;;;22.43;94.45
51526;BME280;37611;51.794;21.590;2022-08-19T05:09:05;99687.63;;;22.80;92.84
51526;BME280;37611;51.794;21.590;2022-08-19T05:13:07;99693.27;;;23.18;91.89
51526;BME280;37611;51.794;21.590;2022-08-19T05:17:10;99697.87;;;23.48;90.56
51526;BME280;37611;51.794;21.590;2022-08-19T05:21:14;99692.63;;;23.78;89.73
51526;BME280;37611;51.794;21.590;2022-08-19T05:25:39;99689.42;;;24.02;88.57
51526;BME280;37611;51.794;21.590;2022-08-19T05:29:41;99695.44;;;24.23;87.64
51526;BME280;37611;51.794;21.590;2022-08-19T05:33:43;99692.04;;;24.42;87.27
51526;BME280;37611;51.794;21.590;2022-08-19T05:37:44;99692.69;;;24.56;85.98
51526;BME280;37611;51.794;21.590;2022-08-19T05:41:49;99701.92;;;24.74;86.10
51526;BME280;37611;51.794;21.590;2022-08-19T05:45:51;99707.34;;;25.00;85.61
51526;BME280;37611;51.794;21.590;2022-08-19T05:49:53;99714.59;;;25.27;85.49
51526;BME280;37611;51.794;21.590;2022-08-19T05:53:54;99720.08;;;25.51;84.07
51526;BME280;37611;51.794;21.590;2022-08-19T05:57:56;99720.83;;;25.78;83.35
51526;BME280;37611;51.794;21.590;2022-08-19T06:01:58;99713.19;;;26.04;81.42
51526;BME280;37611;51.794;21.590;2022-08-19T06:06:00;99708.33;;;26.12;80.46
51526;BME280;37611;51.794;21.590;2022-08-19T06:10:05;99709.15;;;26.13;80.42
51526;BME280;37611;51.794;21.590;2022-08-19T06:14:15;99706.16;;;26.17;80.04
51526;BME280;37611;51.794;21.590;2022-08-19T06:18:18;99699.35;;;26.36;79.88
51526;BME280;37611;51.794;21.590;2022-08-19T06:22:20;99690.81;;;26.53;79.11
51526;BME280;37611;51.794;21.590;2022-08-19T06:26:23;99692.67;;;26.48;78.37
51526;BME280;37611;51.794;21.590;2022-08-19T06:30:26;99701.52;;;26.40;78.39
51526;BME280;37611;51.794;21.590;2022-08-19T06:34:31;99707.77;;;26.31;77.91
51526;BME280;37611;51.794;21.590;2022-08-19T06:38:33;99702.80;;;26.38;77.75
51526;BME280;37611;51.794;21.590;2022-08-19T06:42:36;99708.11;;;26.57;77.59
51526;BME280;37611;51.794;21.590;2022-08-19T06:46:40;99708.77;;;26.76;76.93
51526;BME280;37611;51.794;21.590;2022-08-19T06:50:42;99709.61;;;26.93;76.46
51526;BME280;37611;51.794;21.590;2022-08-19T06:54:44;99713.17;;;27.11;75.91
51526;BME280;37611;51.794;21.590;2022-08-19T06:58:46;99712.27;;;27.25;74.34
51526;BME280;37611;51.794;21.590;2022-08-19T07:02:48;99710.80;;;27.30;73.98
51526;BME280;37611;51.794;21.590;2022-08-19T07:07:03;99716.41;;;27.41;72.95
51526;BME280;37611;51.794;21.590;2022-08-19T07:11:09;99712.97;;;27.43;72.91
51526;BME280;37611;51.794;21.590;2022-08-19T07:15:11;99708.00;;;27.48;73.46
51526;BME280;37611;51.794;21.590;2022-08-19T07:19:13;99710.84;;;27.63;73.41
51526;BME280;37611;51.794;21.590;2022-08-19T07:23:16;99714.52;;;27.78;71.97
51526;BME280;37611;51.794;21.590;2022-08-19T07:27:18;99718.09;;;27.79;70.83
51526;BME280;37611;51.794;21.590;2022-08-19T07:31:22;99723.54;;;27.85;70.94
51526;BME280;37611;51.794;21.590;2022-08-19T07:35:24;99729.92;;;27.95;70.91
51526;BME280;37611;51.794;21.590;2022-08-19T07:39:28;99724.77;;;28.06;70.54
51526;BME280;37611;51.794;21.590;2022-08-19T07:43:31;99732.62;;;28.21;69.71
51526;BME280;37611;51.794;21.590;2022-08-19T07:47:33;99734.31;;;28.34;68.76
51526;BME280;37611;51.794;21.590;2022-08-19T07:51:35;99737.77;;;28.38;67.98
51526;BME280;37611;51.794;21.590;2022-08-19T07:55:37;99740.25;;;28.40;68.13
51526;BME280;37611;51.794;21.590;2022-08-19T07:59:39;99739.80;;;28.57;68.55
51526;BME280;37611;51.794;21.590;2022-08-19T08:03:40;99734.14;;;28.66;66.88
51526;BME280;37611;51.794;21.590;2022-08-19T08:08:01;99730.75;;;28.82;67.23
51526;BME280;37611;51.794;21.590;2022-08-19T08:12:30;99729.12;;;29.05;66.16
51526;BME280;37611;51.794;21.590;2022-08-19T08:16:38;99725.94;;;29.19;65.23
51526;BME280;37611;51.794;21.590;2022-08-19T08:20:40;99726.73;;;29.27;64.05
51526;BME280;37611;51.794;21.590;2022-08-19T08:24:42;99728.36;;;29.21;63.64
51526;BME280;37611;51.794;21.590;2022-08-19T08:28:43;99724.61;;;29.23;64.00
51526;BME280;37611;51.794;21.590;2022-08-19T08:32:46;99721.59;;;29.29;63.28
51526;BME280;37611;51.794;21.590;2022-08-19T08:36:48;99714.59;;;29.33;62.79
51526;BME280;37611;51.794;21.590;2022-08-19T08:41:02;99715.47;;;29.38;62.39
51526;BME280;37611;51.794;21.590;2022-08-19T08:45:13;99726.14;;;29.44;62.28
51526;BME280;37611;51.794;21.590;2022-08-19T08:49:43;99710.25;;;29.46;61.84
51526;BME280;37611;51.794;21.590;2022-08-19T08:53:49;99717.45;;;29.46;61.40
51526;BME280;37611;51.794;21.590;2022-08-19T08:57:59;99714.61;;;29.43;61.60
51526;BME280;37611;51.794;21.590;2022-08-19T09:02:02;99716.14;;;29.48;61.64
51526;BME280;37611;51.794;21.590;2022-08-19T09:06:11;99723.61;;;29.53;62.26
51526;BME280;37611;51.794;21.590;2022-08-19T09:14:45;99725.07;;;29.73;61.76
51526;BME280;37611;51.794;21.590;2022-08-19T09:18:51;99729.55;;;29.76;61.18
51526;BME280;37611;51.794;21.590;2022-08-19T09:22:54;99725.56;;;29.73;60.60
51526;BME280;37611;51.794;21.590;2022-08-19T09:26:56;99715.26;;;29.75;60.77
51526;BME280;37611;51.794;21.590;2022-08-19T09:30:58;99720.89;;;29.86;60.69
51526;BME280;37611;51.794;21.590;2022-08-19T09:34:59;99729.06;;;29.97;59.37
51526;BME280;37611;51.794;21.590;2022-08-19T09:39:05;99735.20;;;29.99;58.55
51526;BME280;37611;51.794;21.590;2022-08-19T09:43:07;99739.66;;;30.13;59.05
51526;BME280;37611;51.794;21.590;2022-08-19T09:47:11;99746.84;;;30.28;58.29
51526;BME280;37611;51.794;21.590;2022-08-19T09:51:17;99749.14;;;30.40;56.97
51526;BME280;37611;51.794;21.590;2022-08-19T09:55:19;99753.06;;;30.33;56.96
51526;BME280;37611;51.794;21.590;2022-08-19T09:59:21;99744.72;;;30.42;57.72
51526;BME280;37611;51.794;21.590;2022-08-19T10:03:24;99744.11;;;30.52;56.53
51526;BME280;37611;51.794;21.590;2022-08-19T10:07:26;99742.30;;;30.58;56.93
51526;BME280;37611;51.794;21.590;2022-08-19T10:11:27;99739.04;;;30.63;55.53
51526;BME280;37611;51.794;21.590;2022-08-19T10:15:30;99732.92;;;30.65;56.37
51526;BME280;37611;51.794;21.590;2022-08-19T10:19:32;99729.07;;;30.80;56.05
51526;BME280;37611;51.794;21.590;2022-08-19T10:23:39;99730.06;;;30.83;55.38
51526;BME280;37611;51.794;21.590;2022-08-19T10:27:41;99723.82;;;30.83;55.27
51526;BME280;37611;51.794;21.590;2022-08-19T10:31:43;99720.81;;;30.86;55.47
51526;BME280;37611;51.794;21.590;2022-08-19T10:35:44;99710.24;;;30.92;55.26
51526;BME280;37611;51.794;21.590;2022-08-19T10:39:48;99709.70;;;31.03;54.51
51526;BME280;37611;51.794;21.590;2022-08-19T10:43:54;99711.16;;;31.10;53.28
51526;BME280;37611;51.794;21.590;2022-08-19T10:47:56;99704.80;;;31.14;52.56
51526;BME280;37611;51.794;21.590;2022-08-19T10:51:58;99705.25;;;31.23;51.91
51526;BME280;37611;51.794;21.590;2022-08-19T10:56:18;99710.55;;;31.23;51.09
51526;BME280;37611;51.794;21.590;2022-08-19T11:00:39;99693.95;;;31.28;51.33
51526;BME280;37611;51.794;21.590;2022-08-19T11:04:41;99700.64;;;31.31;51.66
51526;BME280;37611;51.794;21.590;2022-08-19T11:08:43;99703.84;;;31.44;52.39
51526;BME280;37611;51.794;21.590;2022-08-19T11:12:46;99695.52;;;31.52;51.51
51526;BME280;37611;51.794;21.590;2022-08-19T11:16:49;99695.54;;;31.54;51.29
51526;BME280;37611;51.794;21.590;2022-08-19T11:20:50;99698.30;;;31.54;50.95
51526;BME280;37611;51.794;21.590;2022-08-19T11:24:52;99701.27;;;31.55;50.67
51526;BME280;37611;51.794;21.590;2022-08-19T11:28:54;99692.40;;;31.53;49.90
51526;BME280;37611;51.794;21.590;2022-08-19T11:32:56;99693.73;;;31.49;50.19
51526;BME280;37611;51.794;21.590;2022-08-19T11:36:58;99692.71;;;31.51;50.19
51526;BME280;37611;51.794;21.590;2022-08-19T11:41:04;99687.95;;;31.56;49.42
51526;BME280;37611;51.794;21.590;2022-08-19T11:45:07;99682.41;;;31.59;49.30
51526;BME280;37611;51.794;21.590;2022-08-19T11:49:09;99688.30;;;31.64;48.94
51526;BME280;37611;51.794;21.590;2022-08-19T11:53:10;99682.24;;;31.68;48.50
51526;BME280;37611;51.794;21.590;2022-08-19T11:57:12;99674.70;;;31.77;48.03
51526;BME280;37611;51.794;21.590;2022-08-19T12:01:18;99670.85;;;31.76;47.48
51526;BME280;37611;51.794;21.590;2022-08-19T12:05:20;99667.16;;;31.76;47.15
51526;BME280;37611;51.794;21.590;2022-08-19T12:09:22;99652.47;;;31.71;47.64
51526;BME280;37611;51.794;21.590;2022-08-19T12:13:24;99658.40;;;31.86;47.59
51526;BME280;37611;51.794;21.590;2022-08-19T12:17:26;99652.83;;;31.88;46.20
51526;BME280;37611;51.794;21.590;2022-08-19T12:21:28;99654.41;;;31.88;46.87
51526;BME280;37611;51.794;21.590;2022-08-19T12:25:30;99653.86;;;31.93;45.67
51526;BME280;37611;51.794;21.590;2022-08-19T12:29:33;99647.55;;;31.92;45.72
51526;BME280;37611;51.794;21.590;2022-08-19T12:33:35;99648.48;;;31.93;45.66
51526;BME280;37611;51.794;21.590;2022-08-19T12:37:38;99642.67;;;31.99;45.25
51526;BME280;37611;51.794;21.590;2022-08-19T12:41:40;99637.55;;;32.05;45.23
51526;BME280;37611;51.794;21.590;2022-08-19T12:45:42;99636.57;;;32.00;44.29
51526;BME280;37611;51.794;21.590;2022-08-19T12:49:45;99639.68;;;31.94;44.69
51526;BME280;37611;51.794;21.590;2022-08-19T12:53:48;99634.77;;;31.92;44.09
51526;BME280;37611;51.794;21.590;2022-08-19T12:57:51;99626.83;;;31.90;43.68
51526;BME280;37611;51.794;21.590;2022-08-19T13:01:52;99624.34;;;31.86;43.20
51526;BME280;37611;51.794;21.590;2022-08-19T13:05:55;99621.89;;;31.87;43.81
51526;BME280;37611;51.794;21.590;2022-08-19T13:09:57;99624.39;;;31.97;44.03
51526;BME280;37611;51.794;21.590;2022-08-19T13:13:59;99614.43;;;32.01;42.07
51526;BME280;37611;51.794;21.590;2022-08-19T13:18:02;99614.27;;;31.93;42.17
51526;BME280;37611;51.794;21.590;2022-08-19T13:22:04;99609.56;;;31.89;42.00
51526;BME280;37611;51.794;21.590;2022-08-19T13:26:07;99611.23;;;31.87;43.02
51526;BME280;37611;51.794;21.590;2022-08-19T13:30:13;99612.30;;;31.85;43.23
51526;BME280;37611;51.794;21.590;2022-08-19T13:34:34;99608.09;;;31.83;43.04
51526;BME280;37611;51.794;21.590;2022-08-19T13:38:38;99606.72;;;31.78;42.43
51526;BME280;37611;51.794;21.590;2022-08-19T13:42:40;99596.83;;;31.72;43.21
51526;BME280;37611;51.794;21.590;2022-08-19T13:46:42;99596.29;;;31.75;43.37
51526;BME280;37611;51.794;21.590;2022-08-19T13:50:46;99594.59;;;31.77;43.69
51526;BME280;37611;51.794;21.590;2022-08-19T13:54:51;99603.06;;;31.77;43.74
51526;BME280;37611;51.794;21.590;2022-08-19T13:58:53;99609.95;;;31.72;43.72
51526;BME280;37611;51.794;21.590;2022-08-19T14:02:55;99602.30;;;31.69;44.37
51526;BME280;37611;51.794;21.590;2022-08-19T14:06:58;99603.98;;;31.65;43.52
51526;BME280;37611;51.794;21.590;2022-08-19T14:10:59;99596.06;;;31.59;44.11
51526;BME280;37611;51.794;21.590;2022-08-19T14:15:03;99595.61;;;31.58;43.68
51526;BME280;37611;51.794;21.590;2022-08-19T14:19:05;99589.08;;;31.53;43.97
51526;BME280;37611;51.794;21.590;2022-08-19T14:23:09;99596.09;;;31.49;43.62
51526;BME280;37611;51.794;21.590;2022-08-19T14:27:13;99599.30;;;31.43;43.69
51526;BME280;37611;51.794;21.590;2022-08-19T14:31:17;99604.42;;;31.37;44.20
51526;BME280;37611;51.794;21.590;2022-08-19T14:35:22;99614.11;;;31.32;44.67
51526;BME280;37611;51.794;21.590;2022-08-19T14:39:24;99612.91;;;31.32;44.82
51526;BME280;37611;51.794;21.590;2022-08-19T14:43:25;99611.08;;;31.28;45.09
51526;BME280;37611;51.794;21.590;2022-08-19T14:47:27;99607.27;;;31.27;45.47
51526;BME280;37611;51.794;21.590;2022-08-19T14:51:28;99613.52;;;31.25;45.05
51526;BME280;37611;51.794;21.590;2022-08-19T14:55:31;99613.23;;;31.19;45.55
51526;BME280;37611;51.794;21.590;2022-08-19T14:59:34;99616.04;;;31.17;46.04
51526;BME280;37611;51.794;21.590;2022-08-19T15:03:36;99620.10;;;31.11;46.43
51526;BME280;37611;51.794;21.590;2022-08-19T15:07:39;99627.94;;;31.03;46.38
51526;BME280;37611;51.794;21.590;2022-08-19T15:11:42;99629.94;;;30.92;46.35
51526;BME280;37611;51.794;21.590;2022-08-19T15:15:44;99633.61;;;30.80;46.81
51526;BME280;37611;51.794;21.590;2022-08-19T15:19:47;99628.85;;;30.72;47.10
51526;BME280;37611;51.794;21.590;2022-08-19T15:23:50;99630.59;;;30.67;47.22
51526;BME280;37611;51.794;21.590;2022-08-19T15:27:53;99621.59;;;30.59;47.72
51526;BME280;37611;51.794;21.590;2022-08-19T15:31:54;99615.94;;;30.52;47.89
51526;BME280;37611;51.794;21.590;2022-08-19T15:35:58;99613.99;;;30.46;48.45
51526;BME280;37611;51.794;21.590;2022-08-19T15:40:00;99610.74;;;30.37;48.35
51526;BME280;37611;51.794;21.590;2022-08-19T15:44:05;99612.76;;;30.30;48.41
51526;BME280;37611;51.794;21.590;2022-08-19T15:48:10;99608.92;;;30.19;48.56
51526;BME280;37611;51.794;21.590;2022-08-19T15:52:11;99598.86;;;30.13;48.91
51526;BME280;37611;51.794;21.590;2022-08-19T15:56:13;99596.16;;;30.05;49.15
51526;BME280;37611;51.794;21.590;2022-08-19T16:00:15;99596.28;;;29.98;49.22
51526;BME280;37611;51.794;21.590;2022-08-19T16:04:35;99602.09;;;29.90;49.58
51526;BME280;37611;51.794;21.590;2022-08-19T16:09:01;99606.05;;;29.84;49.80
51526;BME280;37611;51.794;21.590;2022-08-19T16:13:03;99608.23;;;29.78;50.03
51526;BME280;37611;51.794;21.590;2022-08-19T16:17:06;99605.15;;;29.68;50.43
51526;BME280;37611;51.794;21.590;2022-08-19T16:21:14;99600.58;;;29.60;50.74
51526;BME280;37611;51.794;21.590;2022-08-19T16:25:17;99593.77;;;29.52;50.72
51526;BME280;37611;51.794;21.590;2022-08-19T16:29:20;99595.44;;;29.42;51.04
51526;BME280;37611;51.794;21.590;2022-08-19T16:33:23;99593.59;;;29.33;51.32
51526;BME280;37611;51.794;21.590;2022-08-19T16:37:24;99593.57;;;29.24;51.71
51526;BME280;37611;51.794;21.590;2022-08-19T16:41:27;99588.42;;;29.14;51.97
51526;BME280;37611;51.794;21.590;2022-08-19T16:45:29;99588.59;;;29.06;51.79
51526;BME280;37611;51.794;21.590;2022-08-19T16:49:32;99593.03;;;28.97;52.12
51526;BME280;37611;51.794;21.590;2022-08-19T16:53:35;99590.79;;;28.86;52.32
51526;BME280;37611;51.794;21.590;2022-08-19T16:57:38;99596.72;;;28.77;52.84
51526;BME280;37611;51.794;21.590;2022-08-19T17:01:39;99602.09;;;28.65;53.44
51526;BME280;37611;51.794;21.590;2022-08-19T17:05:50;99598.97;;;28.54;53.63
51526;BME280;37611;51.794;21.590;2022-08-19T17:09:52;99599.11;;;28.41;54.24
51526;BME280;37611;51.794;21.590;2022-08-19T17:13:54;99598.73;;;28.29;54.75
51526;BME280;37611;51.794;21.590;2022-08-19T17:18:00;99588.79;;;28.18;55.08
51526;BME280;37611;51.794;21.590;2022-08-19T17:22:03;99581.23;;;28.06;55.26
51526;BME280;37611;51.794;21.590;2022-08-19T17:26:05;99583.84;;;27.91;55.72
51526;BME280;37611;51.794;21.590;2022-08-19T17:30:07;99593.71;;;27.79;55.97
51526;BME280;37611;51.794;21.590;2022-08-19T17:34:09;99591.99;;;27.68;56.27
51526;BME280;37611;51.794;21.590;2022-08-19T17:38:14;99593.05;;;27.58;56.19
51526;BME280;37611;51.794;21.590;2022-08-19T17:42:16;99599.61;;;27.46;56.53
51526;BME280;37611;51.794;21.590;2022-08-19T17:46:18;99608.10;;;27.37;56.62
51526;BME280;37611;51.794;21.590;2022-08-19T17:50:21;99609.56;;;27.25;56.75
51526;BME280;37611;51.794;21.590;2022-08-19T17:54:24;99613.30;;;27.15;56.80
51526;BME280;37611;51.794;21.590;2022-08-19T17:58:25;99616.02;;;27.05;57.03
51526;BME280;37611;51.794;21.590;2022-08-19T18:02:27;99618.40;;;26.97;57.30
51526;BME280;37611;51.794;21.590;2022-08-19T18:06:29;99625.02;;;26.88;57.43
51526;BME280;37611;51.794;21.590;2022-08-19T18:10:31;99629.21;;;26.79;57.90
51526;BME280;37611;51.794;21.590;2022-08-19T18:14:36;99635.73;;;26.71;58.05
51526;BME280;37611;51.794;21.590;2022-08-19T18:18:40;99640.18;;;26.60;58.55
51526;BME280;37611;51.794;21.590;2022-08-19T18:22:45;99649.27;;;26.51;58.93
51526;BME280;37611;51.794;21.590;2022-08-19T18:26:47;99659.40;;;26.42;59.02
51526;BME280;37611;51.794;21.590;2022-08-19T18:30:49;99663.58;;;26.37;59.11
51526;BME280;37611;51.794;21.590;2022-08-19T18:34:53;99656.89;;;26.32;59.21
51526;BME280;37611;51.794;21.590;2022-08-19T18:38:55;99655.90;;;26.27;59.28
51526;BME280;37611;51.794;21.590;2022-08-19T18:43:15;99653.77;;;26.20;59.37
51526;BME280;37611;51.794;21.590;2022-08-19T18:47:17;99654.17;;;26.10;59.43
51526;BME280;37611;51.794;21.590;2022-08-19T18:51:37;99656.75;;;26.01;59.69
51526;BME280;37611;51.794;21.590;2022-08-19T18:55:39;99657.14;;;25.91;59.89
51526;BME280;37611;51.794;21.590;2022-08-19T18:59:41;99656.64;;;25.80;60.14
51526;BME280;37611;51.794;21.590;2022-08-19T19:03:47;99651.18;;;25.70;60.42
51526;BME280;37611;51.794;21.590;2022-08-19T19:07:51;99645.73;;;25.57;60.80
51526;BME280;37611;51.794;21.590;2022-08-19T19:11:59;99642.41;;;25.44;61.08
51526;BME280;37611;51.794;21.590;2022-08-19T19:16:01;99636.73;;;25.32;61.83
51526;BME280;37611;51.794;21.590;2022-08-19T19:20:04;99634.88;;;25.21;62.06
51526;BME280;37611;51.794;21.590;2022-08-19T19:24:06;99631.33;;;25.09;62.30
51526;BME280;37611;51.794;21.590;2022-08-19T19:28:09;99627.45;;;24.98;62.70
51526;BME280;37611;51.794;21.590;2022-08-19T19:32:28;99623.73;;;24.86;63.22
51526;BME280;37611;51.794;21.590;2022-08-19T19:36:33;99630.30;;;24.74;63.76
51526;BME280;37611;51.794;21.590;2022-08-19T19:40:35;99617.95;;;24.63;64.09
51526;BME280;37611;51.794;21.590;2022-08-19T19:44:41;99614.58;;;24.54;64.22
51526;BME280;37611;51.794;21.590;2022-08-19T19:48:43;99623.60;;;24.49;64.65
51526;BME280;37611;51.794;21.590;2022-08-19T19:52:46;99639.05;;;24.42;64.86
51526;BME280;37611;51.794;21.590;2022-08-19T19:56:48;99647.46;;;24.38;65.16
51526;BME280;37611;51.794;21.590;2022-08-19T20:00:50;99653.39;;;24.38;65.12
51526;BME280;37611;51.794;21.590;2022-08-19T20:04:52;99659.05;;;24.39;65.18
51526;BME280;37611;51.794;21.590;2022-08-19T20:08:56;99656.98;;;24.41;65.27
51526;BME280;37611;51.794;21.590;2022-08-19T20:13:13;99656.93;;;24.42;65.25
51526;BME280;37611;51.794;21.590;2022-08-19T20:17:15;99655.84;;;24.41;65.45
51526;BME280;37611;51.794;21.590;2022-08-19T20:21:17;99665.55;;;24.40;65.42
51526;BME280;37611;51.794;21.590;2022-08-19T20:25:20;99675.56;;;24.38;65.68
51526;BME280;37611;51.794;21.590;2022-08-19T20:29:22;99672.71;;;24.35;65.84
51526;BME280;37611;51.794;21.590;2022-08-19T20:33:23;99673.89;;;24.30;65.96
51526;BME280;37611;51.794;21.590;2022-08-19T20:37:25;99676.68;;;24.26;66.20
51526;BME280;37611;51.794;21.590;2022-08-19T20:41:27;99674.53;;;24.21;66.35
51526;BME280;37611;51.794;21.590;2022-08-19T20:45:30;99679.05;;;24.17;66.52
51526;BME280;37611;51.794;21.590;2022-08-19T20:49:34;99677.97;;;24.13;66.73
51526;BME280;37611;51.794;21.590;2022-08-19T20:53:37;99676.71;;;24.07;67.03
51526;BME280;37611;51.794;21.590;2022-08-19T20:57:39;99678.20;;;24.02;67.13
51526;BME280;37611;51.794;21.590;2022-08-19T21:01:41;99684.09;;;23.96;67.53
51526;BME280;37611;51.794;21.590;2022-08-19T21:05:43;99684.55;;;23.91;67.85
51526;BME280;37611;51.794;21.590;2022-08-19T21:09:46;99684.41;;;23.85;68.12
51526;BME280;37611;51.794;21.590;2022-08-19T21:13:48;99685.39;;;23.79;68.14
51526;BME280;37611;51.794;21.590;2022-08-19T21:17:50;99696.72;;;23.72;68.35
51526;BME280;37611;51.794;21.590;2022-08-19T21:21:52;99702.68;;;23.66;68.60